Sweet Valley, Pennsylvania
Current Conditions -  °F | °C
As of 10:54 AM on Monday 24 Nov 2014 (Local Time) from KAVP Reporting Station
Few Clouds Few Clouds  
Wind Chill: 68°   Ceiling: Unl
Heat Index: 68°   Visibility: 10mi
Dew Point: 55°   Wind: 20mph
Humidity: 63%   Direction: 190°S
Pressure: 29.55"   Gusts: 36mph
Location:  41.28°N, 76.14°W
Report Text: KAVP 241554Z 19017G31KT 150V210 10SM FEW028 20/13 A2955 RMK AO2 PK WND 19031/1551 PRESFR SLP002 T02000128
Loading
Personal Weather Stations






























Interactive Weather Map New forecast layout! Learn more

10-Day Weather Forecast

Advertisements
Track Severe Weather on mobile